sensor_id;sensor_type;location;lat;lon;timestamp;temperature;humidity
47618;DHT22;33336;36.728;-4.414;2022-11-20T00:03:15;15.60;91.30
47618;DHT22;33336;36.728;-4.414;2022-11-20T00:08:18;15.60;91.40
47618;DHT22;33336;36.728;-4.414;2022-11-20T00:13:23;15.50;91.50
47618;DHT22;33336;36.728;-4.414;2022-11-20T00:18:25;15.60;91.50
47618;DHT22;33336;36.728;-4.414;2022-11-20T00:23:30;15.50;91.70
47618;DHT22;33336;36.728;-4.414;2022-11-20T00:28:34;15.50;91.80
47618;DHT22;33336;36.728;-4.414;2022-11-20T00:33:37;15.60;91.70
47618;DHT22;33336;36.728;-4.414;2022-11-20T00:38:41;15.50;91.80
47618;DHT22;33336;36.728;-4.414;2022-11-20T00:43:46;15.40;92.00
47618;DHT22;33336;36.728;-4.414;2022-11-20T00:48:49;15.50;92.00
47618;DHT22;33336;36.728;-4.414;2022-11-20T00:53:52;15.30;92.30
47618;DHT22;33336;36.728;-4.414;2022-11-20T00:58:59;15.40;92.40
47618;DHT22;33336;36.728;-4.414;2022-11-20T01:04:03;15.30;92.80
47618;DHT22;33336;36.728;-4.414;2022-11-20T01:09:09;15.30;92.70
47618;DHT22;33336;36.728;-4.414;2022-11-20T01:14:16;15.20;93.00
47618;DHT22;33336;36.728;-4.414;2022-11-20T01:19:20;15.20;93.10
47618;DHT22;33336;36.728;-4.414;2022-11-20T01:24:25;15.00;93.40
47618;DHT22;33336;36.728;-4.414;2022-11-20T01:29:29;15.00;93.40
47618;DHT22;33336;36.728;-4.414;2022-11-20T01:34:33;15.00;93.40
47618;DHT22;33336;36.728;-4.414;2022-11-20T01:39:35;14.90;93.60
47618;DHT22;33336;36.728;-4.414;2022-11-20T01:44:58;14.90;93.60
47618;DHT22;33336;36.728;-4.414;2022-11-20T01:50:05;14.90;93.80
47618;DHT22;33336;36.728;-4.414;2022-11-20T01:55:17;14.80;93.90
47618;DHT22;33336;36.728;-4.414;2022-11-20T02:00:21;14.60;94.10
47618;DHT22;33336;36.728;-4.414;2022-11-20T02:05:28;14.60;94.20
47618;DHT22;33336;36.728;-4.414;2022-11-20T02:10:32;14.60;94.20
47618;DHT22;33336;36.728;-4.414;2022-11-20T02:15:37;14.70;93.90
47618;DHT22;33336;36.728;-4.414;2022-11-20T02:20:40;14.70;93.80
47618;DHT22;33336;36.728;-4.414;2022-11-20T02:25:47;14.60;94.00
47618;DHT22;33336;36.728;-4.414;2022-11-20T02:30:49;14.60;94.00
47618;DHT22;33336;36.728;-4.414;2022-11-20T02:35:52;14.60;93.90
47618;DHT22;33336;36.728;-4.414;2022-11-20T02:40:56;14.70;93.80
47618;DHT22;33336;36.728;-4.414;2022-11-20T02:46:00;14.50;94.00
47618;DHT22;33336;36.728;-4.414;2022-11-20T02:51:03;14.50;94.10
47618;DHT22;33336;36.728;-4.414;2022-11-20T02:56:08;14.50;94.20
47618;DHT22;33336;36.728;-4.414;2022-11-20T03:01:11;14.40;94.40
47618;DHT22;33336;36.728;-4.414;2022-11-20T03:06:15;14.30;94.60
47618;DHT22;33336;36.728;-4.414;2022-11-20T03:11:20;14.30;94.60
47618;DHT22;33336;36.728;-4.414;2022-11-20T03:16:23;14.10;94.90
47618;DHT22;33336;36.728;-4.414;2022-11-20T03:21:26;14.10;95.00
47618;DHT22;33336;36.728;-4.414;2022-11-20T03:26:32;14.20;95.10
47618;DHT22;33336;36.728;-4.414;2022-11-20T03:31:36;14.10;95.00
47618;DHT22;33336;36.728;-4.414;2022-11-20T03:36:42;14.10;95.00
47618;DHT22;33336;36.728;-4.414;2022-11-20T03:41:46;14.10;94.90
47618;DHT22;33336;36.728;-4.414;2022-11-20T03:46:49;14.20;94.90
47618;DHT22;33336;36.728;-4.414;2022-11-20T03:51:52;14.40;94.50
47618;DHT22;33336;36.728;-4.414;2022-11-20T03:56:57;14.20;94.80
47618;DHT22;33336;36.728;-4.414;2022-11-20T04:01:59;14.30;94.70
47618;DHT22;33336;36.728;-4.414;2022-11-20T04:07:02;14.40;94.60
47618;DHT22;33336;36.728;-4.414;2022-11-20T04:12:07;14.30;94.80
47618;DHT22;33336;36.728;-4.414;2022-11-20T04:17:10;14.30;94.60
47618;DHT22;33336;36.728;-4.414;2022-11-20T04:22:13;14.10;95.30
47618;DHT22;33336;36.728;-4.414;2022-11-20T04:27:19;14.10;94.80
47618;DHT22;33336;36.728;-4.414;2022-11-20T04:32:21;14.20;94.90
47618;DHT22;33336;36.728;-4.414;2022-11-20T04:37:25;14.20;94.40
47618;DHT22;33336;36.728;-4.414;2022-11-20T04:42:29;14.20;94.60
47618;DHT22;33336;36.728;-4.414;2022-11-20T04:47:32;14.30;94.80
47618;DHT22;33336;36.728;-4.414;2022-11-20T04:52:35;14.30;94.70
47618;DHT22;33336;36.728;-4.414;2022-11-20T04:57:40;14.30;94.90
47618;DHT22;33336;36.728;-4.414;2022-11-20T05:02:42;14.20;95.00
47618;DHT22;33336;36.728;-4.414;2022-11-20T05:07:45;14.40;94.80
47618;DHT22;33336;36.728;-4.414;2022-11-20T05:12:49;14.50;94.50
47618;DHT22;33336;36.728;-4.414;2022-11-20T05:17:53;14.60;94.30
47618;DHT22;33336;36.728;-4.414;2022-11-20T05:22:59;14.60;94.20
47618;DHT22;33336;36.728;-4.414;2022-11-20T05:28:04;14.70;94.30
47618;DHT22;33336;36.728;-4.414;2022-11-20T05:33:07;14.60;94.30
47618;DHT22;33336;36.728;-4.414;2022-11-20T05:38:11;14.40;94.50
47618;DHT22;33336;36.728;-4.414;2022-11-20T05:43:16;14.20;94.90
47618;DHT22;33336;36.728;-4.414;2022-11-20T05:48:19;14.10;95.20
47618;DHT22;33336;36.728;-4.414;2022-11-20T05:53:22;14.40;94.90
47618;DHT22;33336;36.728;-4.414;2022-11-20T05:58:27;13.90;95.30
47618;DHT22;33336;36.728;-4.414;2022-11-20T06:03:30;13.80;95.70
47618;DHT22;33336;36.728;-4.414;2022-11-20T06:08:33;14.00;95.40
47618;DHT22;33336;36.728;-4.414;2022-11-20T06:13:38;14.10;95.30
47618;DHT22;33336;36.728;-4.414;2022-11-20T06:18:41;13.60;95.90
47618;DHT22;33336;36.728;-4.414;2022-11-20T06:23:44;13.70;95.90
47618;DHT22;33336;36.728;-4.414;2022-11-20T06:28:49;13.70;95.90
47618;DHT22;33336;36.728;-4.414;2022-11-20T06:33:52;13.90;95.70
47618;DHT22;33336;36.728;-4.414;2022-11-20T06:38:55;13.80;95.80
47618;DHT22;33336;36.728;-4.414;2022-11-20T06:44:00;13.80;95.70
47618;DHT22;33336;36.728;-4.414;2022-11-20T06:49:03;14.00;95.30
47618;DHT22;33336;36.728;-4.414;2022-11-20T06:54:07;13.90;95.40
47618;DHT22;33336;36.728;-4.414;2022-11-20T06:59:12;13.90;95.40
47618;DHT22;33336;36.728;-4.414;2022-11-20T07:04:14;13.90;95.50
47618;DHT22;33336;36.728;-4.414;2022-11-20T07:09:18;13.80;95.70
47618;DHT22;33336;36.728;-4.414;2022-11-20T07:14:22;14.10;95.20
47618;DHT22;33336;36.728;-4.414;2022-11-20T07:19:25;14.00;95.30
47618;DHT22;33336;36.728;-4.414;2022-11-20T07:24:28;14.10;95.30
47618;DHT22;33336;36.728;-4.414;2022-11-20T07:29:57;14.00;95.20
47618;DHT22;33336;36.728;-4.414;2022-11-20T07:35:00;14.20;95.00
47618;DHT22;33336;36.728;-4.414;2022-11-20T07:40:04;14.30;95.00
47618;DHT22;33336;36.728;-4.414;2022-11-20T07:45:09;14.40;95.00
47618;DHT22;33336;36.728;-4.414;2022-11-20T07:50:14;14.20;95.00
47618;DHT22;33336;36.728;-4.414;2022-11-20T07:55:17;14.20;95.10
47618;DHT22;33336;36.728;-4.414;2022-11-20T08:00:23;14.10;95.50
47618;DHT22;33336;36.728;-4.414;2022-11-20T08:05:25;13.90;95.80
47618;DHT22;33336;36.728;-4.414;2022-11-20T08:10:29;14.30;95.20
47618;DHT22;33336;36.728;-4.414;2022-11-20T08:15:34;14.30;95.10
47618;DHT22;33336;36.728;-4.414;2022-11-20T08:20:37;14.40;94.90
47618;DHT22;33336;36.728;-4.414;2022-11-20T08:25:40;14.60;94.40
47618;DHT22;33336;36.728;-4.414;2022-11-20T08:30:45;14.60;94.50
47618;DHT22;33336;36.728;-4.414;2022-11-20T08:35:48;14.50;94.60
47618;DHT22;33336;36.728;-4.414;2022-11-20T08:40:51;14.80;94.00
47618;DHT22;33336;36.728;-4.414;2022-11-20T08:46:09;15.10;93.90
47618;DHT22;33336;36.728;-4.414;2022-11-20T08:51:12;15.00;93.60
47618;DHT22;33336;36.728;-4.414;2022-11-20T08:56:16;15.30;93.40
47618;DHT22;33336;36.728;-4.414;2022-11-20T09:01:22;15.40;93.60
47618;DHT22;33336;36.728;-4.414;2022-11-20T09:06:25;15.60;93.10
47618;DHT22;33336;36.728;-4.414;2022-11-20T09:11:29;15.50;92.60
47618;DHT22;33336;36.728;-4.414;2022-11-20T09:16:33;15.70;92.80
47618;DHT22;33336;36.728;-4.414;2022-11-20T09:21:36;15.80;93.10
47618;DHT22;33336;36.728;-4.414;2022-11-20T09:26:39;15.90;92.70
47618;DHT22;33336;36.728;-4.414;2022-11-20T09:31:43;16.10;92.30
47618;DHT22;33336;36.728;-4.414;2022-11-20T09:36:46;16.10;91.90
47618;DHT22;33336;36.728;-4.414;2022-11-20T09:42:08;16.20;91.90
47618;DHT22;33336;36.728;-4.414;2022-11-20T09:47:22;16.60;91.50
47618;DHT22;33336;36.728;-4.414;2022-11-20T09:52:33;16.60;91.20
47618;DHT22;33336;36.728;-4.414;2022-11-20T09:57:42;16.90;91.00
47618;DHT22;33336;36.728;-4.414;2022-11-20T10:02:50;17.10;90.30
47618;DHT22;33336;36.728;-4.414;2022-11-20T10:08:07;17.40;89.20
47618;DHT22;33336;36.728;-4.414;2022-11-20T10:13:24;17.80;88.70
47618;DHT22;33336;36.728;-4.414;2022-11-20T10:18:40;17.80;88.00
47618;DHT22;33336;36.728;-4.414;2022-11-20T10:29:14;18.10;87.70
47618;DHT22;33336;36.728;-4.414;2022-11-20T10:34:23;18.30;87.40
47618;DHT22;33336;36.728;-4.414;2022-11-20T10:39:33;18.40;86.20
47618;DHT22;33336;36.728;-4.414;2022-11-20T10:44:40;18.70;86.40
47618;DHT22;33336;36.728;-4.414;2022-11-20T10:50:11;18.90;85.30
47618;DHT22;33336;36.728;-4.414;2022-11-20T10:55:25;19.20;84.50
47618;DHT22;33336;36.728;-4.414;2022-11-20T11:00:31;19.00;83.00
47618;DHT22;33336;36.728;-4.414;2022-11-20T11:05:39;19.10;82.50
47618;DHT22;33336;36.728;-4.414;2022-11-20T11:10:47;19.20;81.90
47618;DHT22;33336;36.728;-4.414;2022-11-20T11:15:54;19.30;81.00
47618;DHT22;33336;36.728;-4.414;2022-11-20T11:21:01;19.70;81.90
47618;DHT22;33336;36.728;-4.414;2022-11-20T11:26:06;19.90;82.00
47618;DHT22;33336;36.728;-4.414;2022-11-20T11:31:09;20.30;81.20
47618;DHT22;33336;36.728;-4.414;2022-11-20T11:36:21;19.90;81.70
47618;DHT22;33336;36.728;-4.414;2022-11-20T11:41:30;19.90;82.10
47618;DHT22;33336;36.728;-4.414;2022-11-20T11:46:37;20.10;81.40
47618;DHT22;33336;36.728;-4.414;2022-11-20T11:51:50;20.20;80.10
47618;DHT22;33336;36.728;-4.414;2022-11-20T11:56:59;20.30;79.70
47618;DHT22;33336;36.728;-4.414;2022-11-20T12:02:18;20.30;81.10
47618;DHT22;33336;36.728;-4.414;2022-11-20T12:07:36;20.50;79.90
47618;DHT22;33336;36.728;-4.414;2022-11-20T12:12:44;20.80;80.30
47618;DHT22;33336;36.728;-4.414;2022-11-20T12:17:49;20.50;78.90
47618;DHT22;33336;36.728;-4.414;2022-11-20T12:22:59;20.80;78.80
47618;DHT22;33336;36.728;-4.414;2022-11-20T12:28:22;20.20;79.30
47618;DHT22;33336;36.728;-4.414;2022-11-20T12:39:23;21.10;78.80
47618;DHT22;33336;36.728;-4.414;2022-11-20T12:44:57;21.30;77.50
47618;DHT22;33336;36.728;-4.414;2022-11-20T12:50:19;21.00;78.10
47618;DHT22;33336;36.728;-4.414;2022-11-20T12:55:40;21.20;77.60
47618;DHT22;33336;36.728;-4.414;2022-11-20T13:00:54;21.60;77.20
47618;DHT22;33336;36.728;-4.414;2022-11-20T13:06:05;21.70;76.20
47618;DHT22;33336;36.728;-4.414;2022-11-20T13:11:18;21.30;76.30
47618;DHT22;33336;36.728;-4.414;2022-11-20T13:16:26;22.00;75.80
47618;DHT22;33336;36.728;-4.414;2022-11-20T13:21:38;22.00;75.60
47618;DHT22;33336;36.728;-4.414;2022-11-20T13:26:43;22.30;74.30
47618;DHT22;33336;36.728;-4.414;2022-11-20T13:31:47;23.10;74.10
47618;DHT22;33336;36.728;-4.414;2022-11-20T13:36:51;23.20;73.00
47618;DHT22;33336;36.728;-4.414;2022-11-20T13:42:00;23.20;73.50
47618;DHT22;33336;36.728;-4.414;2022-11-20T13:47:16;24.60;73.30
47618;DHT22;33336;36.728;-4.414;2022-11-20T13:52:35;24.40;72.00
47618;DHT22;33336;36.728;-4.414;2022-11-20T14:03:18;26.00;69.30
47618;DHT22;33336;36.728;-4.414;2022-11-20T14:08:27;26.80;69.90
47618;DHT22;33336;36.728;-4.414;2022-11-20T14:13:33;26.00;68.30
47618;DHT22;33336;36.728;-4.414;2022-11-20T14:18:36;25.30;69.20
47618;DHT22;33336;36.728;-4.414;2022-11-20T14:23:40;24.50;70.60
47618;DHT22;33336;36.728;-4.414;2022-11-20T14:28:48;24.90;69.10
47618;DHT22;33336;36.728;-4.414;2022-11-20T14:33:54;24.90;69.70
47618;DHT22;33336;36.728;-4.414;2022-11-20T14:38:57;25.30;69.50
47618;DHT22;33336;36.728;-4.414;2022-11-20T14:44:03;24.10;70.90
47618;DHT22;33336;36.728;-4.414;2022-11-20T14:49:10;24.10;72.00
47618;DHT22;33336;36.728;-4.414;2022-11-20T14:54:15;24.10;72.00
47618;DHT22;33336;36.728;-4.414;2022-11-20T14:59:24;23.40;73.80
47618;DHT22;33336;36.728;-4.414;2022-11-20T15:04:27;23.90;73.20
47618;DHT22;33336;36.728;-4.414;2022-11-20T15:09:30;23.60;73.50
47618;DHT22;33336;36.728;-4.414;2022-11-20T15:14:36;23.80;73.40
47618;DHT22;33336;36.728;-4.414;2022-11-20T15:19:39;23.70;74.50
47618;DHT22;33336;36.728;-4.414;2022-11-20T15:24:43;24.10;73.80
47618;DHT22;33336;36.728;-4.414;2022-11-20T15:29:47;23.80;73.70
47618;DHT22;33336;36.728;-4.414;2022-11-20T15:34:51;23.90;73.50
47618;DHT22;33336;36.728;-4.414;2022-11-20T15:39:54;24.00;73.30
47618;DHT22;33336;36.728;-4.414;2022-11-20T15:44:59;23.50;73.20
47618;DHT22;33336;36.728;-4.414;2022-11-20T15:50:03;23.20;74.20
47618;DHT22;33336;36.728;-4.414;2022-11-20T15:55:09;23.10;74.20
47618;DHT22;33336;36.728;-4.414;2022-11-20T16:00:15;23.60;73.50
47618;DHT22;33336;36.728;-4.414;2022-11-20T16:05:18;22.70;75.00
47618;DHT22;33336;36.728;-4.414;2022-11-20T16:10:21;22.80;75.20
47618;DHT22;33336;36.728;-4.414;2022-11-20T16:15:26;21.90;76.60
47618;DHT22;33336;36.728;-4.414;2022-11-20T16:20:51;21.40;77.80
47618;DHT22;33336;36.728;-4.414;2022-11-20T16:25:55;21.70;78.40
47618;DHT22;33336;36.728;-4.414;2022-11-20T16:31:08;22.00;77.70
47618;DHT22;33336;36.728;-4.414;2022-11-20T16:36:12;22.00;78.00
47618;DHT22;33336;36.728;-4.414;2022-11-20T16:41:16;21.90;77.90
47618;DHT22;33336;36.728;-4.414;2022-11-20T16:46:22;21.90;77.80
47618;DHT22;33336;36.728;-4.414;2022-11-20T16:51:26;21.70;78.10
47618;DHT22;33336;36.728;-4.414;2022-11-20T16:56:30;20.70;79.60
47618;DHT22;33336;36.728;-4.414;2022-11-20T17:01:34;20.80;80.40
47618;DHT22;33336;36.728;-4.414;2022-11-20T17:06:41;20.80;80.50
47618;DHT22;33336;36.728;-4.414;2022-11-20T17:11:47;20.70;81.30
47618;DHT22;33336;36.728;-4.414;2022-11-20T17:16:52;20.10;82.50
47618;DHT22;33336;36.728;-4.414;2022-11-20T17:21:55;20.40;82.00
47618;DHT22;33336;36.728;-4.414;2022-11-20T17:26:58;20.00;82.10
47618;DHT22;33336;36.728;-4.414;2022-11-20T17:32:02;20.00;82.90
47618;DHT22;33336;36.728;-4.414;2022-11-20T17:37:05;20.20;82.30
47618;DHT22;33336;36.728;-4.414;2022-11-20T17:42:08;20.40;82.10
47618;DHT22;33336;36.728;-4.414;2022-11-20T17:47:33;20.10;82.90
47618;DHT22;33336;36.728;-4.414;2022-11-20T17:52:37;19.60;84.20
47618;DHT22;33336;36.728;-4.414;2022-11-20T17:57:40;19.60;84.00
47618;DHT22;33336;36.728;-4.414;2022-11-20T18:02:59;19.50;84.50
47618;DHT22;33336;36.728;-4.414;2022-11-20T18:08:02;19.30;85.20
47618;DHT22;33336;36.728;-4.414;2022-11-20T18:13:06;19.30;85.50
47618;DHT22;33336;36.728;-4.414;2022-11-20T18:18:10;19.20;85.80
47618;DHT22;33336;36.728;-4.414;2022-11-20T18:23:13;19.20;85.80
47618;DHT22;33336;36.728;-4.414;2022-11-20T18:28:16;19.00;86.40
47618;DHT22;33336;36.728;-4.414;2022-11-20T18:33:21;18.80;87.00
47618;DHT22;33336;36.728;-4.414;2022-11-20T18:38:24;18.80;87.20
47618;DHT22;33336;36.728;-4.414;2022-11-20T18:43:27;18.60;87.30
47618;DHT22;33336;36.728;-4.414;2022-11-20T18:48:49;18.60;87.00
47618;DHT22;33336;36.728;-4.414;2022-11-20T18:53:52;18.40;87.70
47618;DHT22;33336;36.728;-4.414;2022-11-20T18:58:55;18.40;87.20
47618;DHT22;33336;36.728;-4.414;2022-11-20T19:04:05;18.40;87.10
47618;DHT22;33336;36.728;-4.414;2022-11-20T19:09:09;18.60;86.70
47618;DHT22;33336;36.728;-4.414;2022-11-20T19:14:13;18.40;87.20
47618;DHT22;33336;36.728;-4.414;2022-11-20T19:19:17;18.40;87.70
47618;DHT22;33336;36.728;-4.414;2022-11-20T19:24:21;18.30;87.70
47618;DHT22;33336;36.728;-4.414;2022-11-20T19:29:24;18.10;88.40
47618;DHT22;33336;36.728;-4.414;2022-11-20T19:34:30;17.80;89.50
47618;DHT22;33336;36.728;-4.414;2022-11-20T19:39:34;17.80;90.00
47618;DHT22;33336;36.728;-4.414;2022-11-20T19:44:38;18.00;89.80
47618;DHT22;33336;36.728;-4.414;2022-11-20T19:49:42;17.60;90.30
47618;DHT22;33336;36.728;-4.414;2022-11-20T19:54:46;17.40;90.50
47618;DHT22;33336;36.728;-4.414;2022-11-20T19:59:49;17.60;90.30
47618;DHT22;33336;36.728;-4.414;2022-11-20T20:04:54;17.60;90.40
47618;DHT22;33336;36.728;-4.414;2022-11-20T20:09:58;17.40;90.70
47618;DHT22;33336;36.728;-4.414;2022-11-20T20:15:04;17.30;91.20
47618;DHT22;33336;36.728;-4.414;2022-11-20T20:20:09;17.10;91.60
47618;DHT22;33336;36.728;-4.414;2022-11-20T20:25:13;17.10;91.70
47618;DHT22;33336;36.728;-4.414;2022-11-20T20:30:16;17.00;92.00
47618;DHT22;33336;36.728;-4.414;2022-11-20T20:35:20;17.00;92.10
47618;DHT22;33336;36.728;-4.414;2022-11-20T20:40:23;16.60;92.60
47618;DHT22;33336;36.728;-4.414;2022-11-20T20:45:27;16.70;92.60
47618;DHT22;33336;36.728;-4.414;2022-11-20T20:50:31;16.60;92.80
47618;DHT22;33336;36.728;-4.414;2022-11-20T20:55:35;16.80;92.50
47618;DHT22;33336;36.728;-4.414;2022-11-20T21:00:38;16.80;92.70
47618;DHT22;33336;36.728;-4.414;2022-11-20T21:05:44;16.70;93.30
47618;DHT22;33336;36.728;-4.414;2022-11-20T21:10:47;16.40;93.90
47618;DHT22;33336;36.728;-4.414;2022-11-20T21:15:51;16.60;93.90
47618;DHT22;33336;36.728;-4.414;2022-11-20T21:20:55;16.40;94.40
47618;DHT22;33336;36.728;-4.414;2022-11-20T21:26:16;16.30;94.60
47618;DHT22;33336;36.728;-4.414;2022-11-20T21:31:21;16.50;94.20
47618;DHT22;33336;36.728;-4.414;2022-11-20T21:36:28;16.50;94.20
47618;DHT22;33336;36.728;-4.414;2022-11-20T21:41:31;16.60;94.20
47618;DHT22;33336;36.728;-4.414;2022-11-20T21:46:38;16.40;94.40
47618;DHT22;33336;36.728;-4.414;2022-11-20T21:51:43;16.60;94.30
47618;DHT22;33336;36.728;-4.414;2022-11-20T21:56:47;16.50;94.40
47618;DHT22;33336;36.728;-4.414;2022-11-20T22:01:49;16.50;94.50
47618;DHT22;33336;36.728;-4.414;2022-11-20T22:06:54;16.30;94.70
47618;DHT22;33336;36.728;-4.414;2022-11-20T22:11:57;16.50;94.30
47618;DHT22;33336;36.728;-4.414;2022-11-20T22:17:01;16.70;94.10
47618;DHT22;33336;36.728;-4.414;2022-11-20T22:22:05;16.80;94.00
47618;DHT22;33336;36.728;-4.414;2022-11-20T22:27:09;16.90;94.20
47618;DHT22;33336;36.728;-4.414;2022-11-20T22:32:12;16.90;94.30
47618;DHT22;33336;36.728;-4.414;2022-11-20T22:37:16;17.00;93.80
47618;DHT22;33336;36.728;-4.414;2022-11-20T22:42:19;17.00;93.80
47618;DHT22;33336;36.728;-4.414;2022-11-20T22:47:22;17.00;93.90
47618;DHT22;33336;36.728;-4.414;2022-11-20T22:52:26;16.90;94.10
47618;DHT22;33336;36.728;-4.414;2022-11-20T22:57:30;16.70;94.50
47618;DHT22;33336;36.728;-4.414;2022-11-20T23:02:33;16.60;94.50
47618;DHT22;33336;36.728;-4.414;2022-11-20T23:07:38;16.70;94.60
47618;DHT22;33336;36.728;-4.414;2022-11-20T23:12:41;16.70;94.80
47618;DHT22;33336;36.728;-4.414;2022-11-20T23:17:44;16.80;94.70
47618;DHT22;33336;36.728;-4.414;2022-11-20T23:22:48;16.40;95.30
47618;DHT22;33336;36.728;-4.414;2022-11-20T23:27:52;16.40;95.50
47618;DHT22;33336;36.728;-4.414;2022-11-20T23:32:55;16.40;95.50
47618;DHT22;33336;36.728;-4.414;2022-11-20T23:38:00;16.30;95.60
47618;DHT22;33336;36.728;-4.414;2022-11-20T23:43:03;16.60;95.30
47618;DHT22;33336;36.728;-4.414;2022-11-20T23:48:20;16.60;95.20
47618;DHT22;33336;36.728;-4.414;2022-11-20T23:53:25;16.60;95.10
47618;DHT22;33336;36.728;-4.414;2022-11-20T23:58:30;16.50;95.40
